sensor_id;sensor_type;location;lat;lon;timestamp;P1;durP1;ratioP1;P2;durP2;ratioP2
28529;SDS011;15737;49.760;6.632;2023-05-21T00:02:15;3.23;;;2.80;;
28529;SDS011;15737;49.760;6.632;2023-05-21T00:04:42;3.90;;;2.37;;
28529;SDS011;15737;49.760;6.632;2023-05-21T00:07:09;3.30;;;2.63;;
28529;SDS011;15737;49.760;6.632;2023-05-21T00:09:35;3.27;;;2.83;;
28529;SDS011;15737;49.760;6.632;2023-05-21T00:12:02;4.17;;;3.27;;
28529;SDS011;15737;49.760;6.632;2023-05-21T00:14:34;4.47;;;3.47;;
28529;SDS011;15737;49.760;6.632;2023-05-21T00:17:00;3.60;;;3.03;;
28529;SDS011;15737;49.760;6.632;2023-05-21T00:19:26;4.10;;;2.63;;
28529;SDS011;15737;49.760;6.632;2023-05-21T00:21:51;6.63;;;2.73;;
28529;SDS011;15737;49.760;6.632;2023-05-21T00:24:17;2.77;;;2.57;;
28529;SDS011;15737;49.760;6.632;2023-05-21T00:26:43;3.80;;;3.00;;
28529;SDS011;15737;49.760;6.632;2023-05-21T00:29:08;2.97;;;2.67;;
28529;SDS011;15737;49.760;6.632;2023-05-21T00:31:34;4.03;;;2.87;;
28529;SDS011;15737;49.760;6.632;2023-05-21T00:33:59;3.20;;;2.80;;
28529;SDS011;15737;49.760;6.632;2023-05-21T00:36:25;3.93;;;3.23;;
28529;SDS011;15737;49.760;6.632;2023-05-21T00:38:50;5.87;;;3.60;;
28529;SDS011;15737;49.760;6.632;2023-05-21T00:41:17;3.57;;;2.90;;
28529;SDS011;15737;49.760;6.632;2023-05-21T00:43:43;3.90;;;3.23;;
28529;SDS011;15737;49.760;6.632;2023-05-21T00:46:12;2.60;;;2.33;;
28529;SDS011;15737;49.760;6.632;2023-05-21T00:48:40;4.80;;;3.03;;
28529;SDS011;15737;49.760;6.632;2023-05-21T00:51:07;3.87;;;3.10;;
28529;SDS011;15737;49.760;6.632;2023-05-21T00:53:33;3.20;;;2.90;;
28529;SDS011;15737;49.760;6.632;2023-05-21T00:55:59;4.13;;;3.10;;
28529;SDS011;15737;49.760;6.632;2023-05-21T00:58:26;3.93;;;2.77;;
28529;SDS011;15737;49.760;6.632;2023-05-21T01:00:52;4.70;;;3.47;;
28529;SDS011;15737;49.760;6.632;2023-05-21T01:03:23;4.27;;;3.47;;
28529;SDS011;15737;49.760;6.632;2023-05-21T01:05:50;4.57;;;3.03;;
28529;SDS011;15737;49.760;6.632;2023-05-21T01:08:17;3.87;;;3.37;;
28529;SDS011;15737;49.760;6.632;2023-05-21T01:10:45;3.63;;;3.30;;
28529;SDS011;15737;49.760;6.632;2023-05-21T01:13:12;5.27;;;3.20;;
28529;SDS011;15737;49.760;6.632;2023-05-21T01:15:38;4.07;;;3.53;;
28529;SDS011;15737;49.760;6.632;2023-05-21T01:18:04;5.23;;;3.70;;
28529;SDS011;15737;49.760;6.632;2023-05-21T01:20:31;5.60;;;3.60;;
28529;SDS011;15737;49.760;6.632;2023-05-21T01:22:57;4.23;;;3.57;;
28529;SDS011;15737;49.760;6.632;2023-05-21T01:25:22;7.13;;;3.67;;
28529;SDS011;15737;49.760;6.632;2023-05-21T01:27:49;3.50;;;2.50;;
28529;SDS011;15737;49.760;6.632;2023-05-21T01:30:15;5.83;;;3.63;;
28529;SDS011;15737;49.760;6.632;2023-05-21T01:41:00;4.57;;;3.20;;
28529;SDS011;15737;49.760;6.632;2023-05-21T01:43:28;10.30;;;3.97;;
28529;SDS011;15737;49.760;6.632;2023-05-21T01:45:58;4.10;;;3.00;;
28529;SDS011;15737;49.760;6.632;2023-05-21T01:48:26;4.67;;;3.50;;
28529;SDS011;15737;49.760;6.632;2023-05-21T01:50:53;4.17;;;3.23;;
28529;SDS011;15737;49.760;6.632;2023-05-21T01:53:22;4.77;;;3.30;;
28529;SDS011;15737;49.760;6.632;2023-05-21T01:55:48;5.87;;;3.50;;
28529;SDS011;15737;49.760;6.632;2023-05-21T01:58:13;4.10;;;3.60;;
28529;SDS011;15737;49.760;6.632;2023-05-21T02:00:42;6.80;;;4.07;;
28529;SDS011;15737;49.760;6.632;2023-05-21T02:03:12;4.47;;;3.87;;
28529;SDS011;15737;49.760;6.632;2023-05-21T02:05:41;11.10;;;4.17;;
28529;SDS011;15737;49.760;6.632;2023-05-21T02:08:06;4.17;;;3.53;;
28529;SDS011;15737;49.760;6.632;2023-05-21T02:10:35;4.50;;;3.43;;
28529;SDS011;15737;49.760;6.632;2023-05-21T02:13:00;4.47;;;3.60;;
28529;SDS011;15737;49.760;6.632;2023-05-21T02:15:26;4.80;;;3.97;;
28529;SDS011;15737;49.760;6.632;2023-05-21T02:17:52;3.93;;;3.30;;
28529;SDS011;15737;49.760;6.632;2023-05-21T02:20:18;5.70;;;4.00;;
28529;SDS011;15737;49.760;6.632;2023-05-21T02:22:46;4.83;;;3.37;;
28529;SDS011;15737;49.760;6.632;2023-05-21T02:25:13;5.43;;;4.27;;
28529;SDS011;15737;49.760;6.632;2023-05-21T02:27:40;5.50;;;3.77;;
28529;SDS011;15737;49.760;6.632;2023-05-21T02:30:07;4.93;;;3.77;;
28529;SDS011;15737;49.760;6.632;2023-05-21T02:32:34;4.43;;;3.40;;
28529;SDS011;15737;49.760;6.632;2023-05-21T02:35:01;4.63;;;3.37;;
28529;SDS011;15737;49.760;6.632;2023-05-21T02:37:28;5.60;;;3.87;;
28529;SDS011;15737;49.760;6.632;2023-05-21T02:39:54;6.53;;;3.57;;
28529;SDS011;15737;49.760;6.632;2023-05-21T02:42:23;5.00;;;3.80;;
28529;SDS011;15737;49.760;6.632;2023-05-21T02:44:49;5.27;;;3.33;;
28529;SDS011;15737;49.760;6.632;2023-05-21T02:47:15;4.00;;;3.60;;
28529;SDS011;15737;49.760;6.632;2023-05-21T02:49:41;5.50;;;4.20;;
28529;SDS011;15737;49.760;6.632;2023-05-21T02:52:07;4.57;;;3.63;;
28529;SDS011;15737;49.760;6.632;2023-05-21T02:54:33;8.60;;;4.00;;
28529;SDS011;15737;49.760;6.632;2023-05-21T02:56:58;5.03;;;3.67;;
28529;SDS011;15737;49.760;6.632;2023-05-21T02:59:24;5.93;;;4.10;;
28529;SDS011;15737;49.760;6.632;2023-05-21T03:01:49;5.43;;;3.93;;
28529;SDS011;15737;49.760;6.632;2023-05-21T03:04:15;6.73;;;4.33;;
28529;SDS011;15737;49.760;6.632;2023-05-21T03:06:45;3.53;;;3.07;;
28529;SDS011;15737;49.760;6.632;2023-05-21T03:09:11;5.37;;;3.70;;
28529;SDS011;15737;49.760;6.632;2023-05-21T03:11:37;4.77;;;3.10;;
28529;SDS011;15737;49.760;6.632;2023-05-21T03:14:03;5.83;;;4.20;;
28529;SDS011;15737;49.760;6.632;2023-05-21T03:16:28;5.00;;;3.60;;
28529;SDS011;15737;49.760;6.632;2023-05-21T03:18:58;5.13;;;3.50;;
28529;SDS011;15737;49.760;6.632;2023-05-21T03:21:24;4.27;;;3.60;;
28529;SDS011;15737;49.760;6.632;2023-05-21T03:23:49;6.20;;;4.20;;
28529;SDS011;15737;49.760;6.632;2023-05-21T03:26:15;6.23;;;3.73;;
28529;SDS011;15737;49.760;6.632;2023-05-21T03:28:40;6.23;;;4.00;;
28529;SDS011;15737;49.760;6.632;2023-05-21T03:31:06;7.50;;;4.37;;
28529;SDS011;15737;49.760;6.632;2023-05-21T03:33:31;5.83;;;4.90;;
28529;SDS011;15737;49.760;6.632;2023-05-21T03:35:57;4.93;;;4.03;;
28529;SDS011;15737;49.760;6.632;2023-05-21T03:38:23;5.13;;;3.97;;
28529;SDS011;15737;49.760;6.632;2023-05-21T03:40:48;3.50;;;3.17;;
28529;SDS011;15737;49.760;6.632;2023-05-21T03:43:14;5.80;;;3.77;;
28529;SDS011;15737;49.760;6.632;2023-05-21T03:45:39;6.77;;;5.07;;
28529;SDS011;15737;49.760;6.632;2023-05-21T03:48:05;4.37;;;3.27;;
28529;SDS011;15737;49.760;6.632;2023-05-21T03:50:31;4.80;;;3.53;;
28529;SDS011;15737;49.760;6.632;2023-05-21T03:52:56;7.70;;;4.97;;
28529;SDS011;15737;49.760;6.632;2023-05-21T03:55:22;5.53;;;4.20;;
28529;SDS011;15737;49.760;6.632;2023-05-21T03:57:47;4.23;;;3.13;;
28529;SDS011;15737;49.760;6.632;2023-05-21T04:00:13;6.17;;;4.27;;
28529;SDS011;15737;49.760;6.632;2023-05-21T04:02:38;6.43;;;3.87;;
28529;SDS011;15737;49.760;6.632;2023-05-21T04:05:04;7.07;;;3.83;;
28529;SDS011;15737;49.760;6.632;2023-05-21T04:07:30;5.37;;;3.87;;
28529;SDS011;15737;49.760;6.632;2023-05-21T04:09:56;7.90;;;3.80;;
28529;SDS011;15737;49.760;6.632;2023-05-21T04:12:22;7.57;;;4.40;;
28529;SDS011;15737;49.760;6.632;2023-05-21T04:14:47;6.53;;;4.53;;
28529;SDS011;15737;49.760;6.632;2023-05-21T04:17:13;5.40;;;3.67;;
28529;SDS011;15737;49.760;6.632;2023-05-21T04:19:38;6.03;;;4.20;;
28529;SDS011;15737;49.760;6.632;2023-05-21T04:22:04;3.97;;;3.57;;
28529;SDS011;15737;49.760;6.632;2023-05-21T04:24:30;7.40;;;3.77;;
28529;SDS011;15737;49.760;6.632;2023-05-21T04:26:56;5.23;;;4.17;;
28529;SDS011;15737;49.760;6.632;2023-05-21T04:29:25;6.27;;;4.83;;
28529;SDS011;15737;49.760;6.632;2023-05-21T04:31:51;5.60;;;4.10;;
28529;SDS011;15737;49.760;6.632;2023-05-21T04:34:16;5.17;;;3.80;;
28529;SDS011;15737;49.760;6.632;2023-05-21T04:36:43;5.40;;;4.17;;
28529;SDS011;15737;49.760;6.632;2023-05-21T04:39:12;5.83;;;3.97;;
28529;SDS011;15737;49.760;6.632;2023-05-21T04:41:38;6.37;;;4.37;;
28529;SDS011;15737;49.760;6.632;2023-05-21T04:44:06;9.07;;;4.47;;
28529;SDS011;15737;49.760;6.632;2023-05-21T04:46:32;4.33;;;3.40;;
28529;SDS011;15737;49.760;6.632;2023-05-21T04:48:59;7.80;;;4.90;;
28529;SDS011;15737;49.760;6.632;2023-05-21T04:51:27;4.97;;;3.77;;
28529;SDS011;15737;49.760;6.632;2023-05-21T04:53:54;6.70;;;4.60;;
28529;SDS011;15737;49.760;6.632;2023-05-21T04:56:20;7.47;;;4.10;;
28529;SDS011;15737;49.760;6.632;2023-05-21T04:58:51;4.40;;;3.73;;
28529;SDS011;15737;49.760;6.632;2023-05-21T05:01:20;8.33;;;4.97;;
28529;SDS011;15737;49.760;6.632;2023-05-21T05:03:47;5.17;;;3.83;;
28529;SDS011;15737;49.760;6.632;2023-05-21T05:06:13;5.20;;;3.90;;
28529;SDS011;15737;49.760;6.632;2023-05-21T05:08:38;6.10;;;4.07;;
28529;SDS011;15737;49.760;6.632;2023-05-21T05:11:04;7.17;;;4.97;;
28529;SDS011;15737;49.760;6.632;2023-05-21T05:13:30;5.37;;;4.00;;
28529;SDS011;15737;49.760;6.632;2023-05-21T05:15:55;6.67;;;4.23;;
28529;SDS011;15737;49.760;6.632;2023-05-21T05:18:21;7.63;;;4.43;;
28529;SDS011;15737;49.760;6.632;2023-05-21T05:20:47;7.50;;;4.57;;
28529;SDS011;15737;49.760;6.632;2023-05-21T05:23:12;6.60;;;4.43;;
28529;SDS011;15737;49.760;6.632;2023-05-21T05:25:38;6.77;;;4.60;;
28529;SDS011;15737;49.760;6.632;2023-05-21T05:28:04;7.00;;;4.07;;
28529;SDS011;15737;49.760;6.632;2023-05-21T05:30:30;5.40;;;4.10;;
28529;SDS011;15737;49.760;6.632;2023-05-21T05:32:55;6.10;;;3.93;;
28529;SDS011;15737;49.760;6.632;2023-05-21T05:35:21;5.77;;;4.17;;
28529;SDS011;15737;49.760;6.632;2023-05-21T05:37:46;5.60;;;3.50;;
28529;SDS011;15737;49.760;6.632;2023-05-21T05:40:12;8.43;;;4.63;;
28529;SDS011;15737;49.760;6.632;2023-05-21T05:42:37;4.60;;;4.10;;
28529;SDS011;15737;49.760;6.632;2023-05-21T05:45:03;5.13;;;4.10;;
28529;SDS011;15737;49.760;6.632;2023-05-21T05:47:29;5.43;;;4.23;;
28529;SDS011;15737;49.760;6.632;2023-05-21T05:49:55;7.27;;;4.80;;
28529;SDS011;15737;49.760;6.632;2023-05-21T05:52:20;5.63;;;4.50;;
28529;SDS011;15737;49.760;6.632;2023-05-21T05:54:46;5.80;;;4.13;;
28529;SDS011;15737;49.760;6.632;2023-05-21T05:57:11;6.57;;;4.60;;
28529;SDS011;15737;49.760;6.632;2023-05-21T05:59:37;6.90;;;4.07;;
28529;SDS011;15737;49.760;6.632;2023-05-21T06:02:03;7.10;;;4.27;;
28529;SDS011;15737;49.760;6.632;2023-05-21T06:04:28;6.10;;;4.53;;
28529;SDS011;15737;49.760;6.632;2023-05-21T06:06:54;6.17;;;4.47;;
28529;SDS011;15737;49.760;6.632;2023-05-21T06:09:21;6.43;;;4.50;;
28529;SDS011;15737;49.760;6.632;2023-05-21T06:11:47;6.70;;;4.60;;
28529;SDS011;15737;49.760;6.632;2023-05-21T06:14:13;5.80;;;3.60;;
28529;SDS011;15737;49.760;6.632;2023-05-21T06:16:38;7.87;;;4.43;;
28529;SDS011;15737;49.760;6.632;2023-05-21T06:19:04;6.63;;;5.07;;
28529;SDS011;15737;49.760;6.632;2023-05-21T06:21:29;5.23;;;4.17;;
28529;SDS011;15737;49.760;6.632;2023-05-21T06:23:55;5.10;;;4.07;;
28529;SDS011;15737;49.760;6.632;2023-05-21T06:26:20;6.53;;;5.00;;
28529;SDS011;15737;49.760;6.632;2023-05-21T06:28:47;6.05;;;4.22;;
28529;SDS011;15737;49.760;6.632;2023-05-21T06:31:12;5.27;;;4.47;;
28529;SDS011;15737;49.760;6.632;2023-05-21T06:33:38;5.50;;;4.53;;
28529;SDS011;15737;49.760;6.632;2023-05-21T06:36:03;5.68;;;3.88;;
28529;SDS011;15737;49.760;6.632;2023-05-21T06:38:29;6.05;;;4.10;;
28529;SDS011;15737;49.760;6.632;2023-05-21T06:40:55;5.80;;;4.22;;
28529;SDS011;15737;49.760;6.632;2023-05-21T06:43:25;7.28;;;4.35;;
28529;SDS011;15737;49.760;6.632;2023-05-21T06:45:52;7.35;;;4.72;;
28529;SDS011;15737;49.760;6.632;2023-05-21T06:48:18;5.40;;;4.18;;
28529;SDS011;15737;49.760;6.632;2023-05-21T06:50:43;6.50;;;4.50;;
28529;SDS011;15737;49.760;6.632;2023-05-21T06:53:09;6.80;;;4.63;;
28529;SDS011;15737;49.760;6.632;2023-05-21T06:55:34;7.45;;;4.68;;
28529;SDS011;15737;49.760;6.632;2023-05-21T06:58:00;7.70;;;4.22;;
28529;SDS011;15737;49.760;6.632;2023-05-21T07:00:25;7.72;;;4.70;;
28529;SDS011;15737;49.760;6.632;2023-05-21T07:02:51;6.88;;;4.95;;
28529;SDS011;15737;49.760;6.632;2023-05-21T07:05:17;5.97;;;4.10;;
28529;SDS011;15737;49.760;6.632;2023-05-21T07:07:42;6.78;;;4.85;;
28529;SDS011;15737;49.760;6.632;2023-05-21T07:10:08;7.45;;;4.93;;
28529;SDS011;15737;49.760;6.632;2023-05-21T07:12:34;7.63;;;5.10;;
28529;SDS011;15737;49.760;6.632;2023-05-21T07:15:00;6.32;;;5.07;;
28529;SDS011;15737;49.760;6.632;2023-05-21T07:17:25;5.93;;;4.85;;
28529;SDS011;15737;49.760;6.632;2023-05-21T07:19:51;6.25;;;4.50;;
28529;SDS011;15737;49.760;6.632;2023-05-21T07:22:16;6.07;;;4.72;;
28529;SDS011;15737;49.760;6.632;2023-05-21T07:24:42;7.82;;;4.70;;
28529;SDS011;15737;49.760;6.632;2023-05-21T07:27:07;5.82;;;4.38;;
28529;SDS011;15737;49.760;6.632;2023-05-21T07:29:33;8.50;;;5.55;;
28529;SDS011;15737;49.760;6.632;2023-05-21T07:31:58;5.80;;;4.85;;
28529;SDS011;15737;49.760;6.632;2023-05-21T07:34:24;6.38;;;5.10;;
28529;SDS011;15737;49.760;6.632;2023-05-21T07:36:50;5.80;;;4.82;;
28529;SDS011;15737;49.760;6.632;2023-05-21T07:39:16;6.25;;;4.55;;
28529;SDS011;15737;49.760;6.632;2023-05-21T07:41:41;9.38;;;5.28;;
28529;SDS011;15737;49.760;6.632;2023-05-21T07:44:07;6.80;;;4.97;;
28529;SDS011;15737;49.760;6.632;2023-05-21T07:46:33;6.03;;;4.95;;
28529;SDS011;15737;49.760;6.632;2023-05-21T07:48:58;6.57;;;4.60;;
28529;SDS011;15737;49.760;6.632;2023-05-21T07:51:24;5.82;;;4.90;;
28529;SDS011;15737;49.760;6.632;2023-05-21T07:53:50;6.47;;;5.03;;
28529;SDS011;15737;49.760;6.632;2023-05-21T07:56:16;5.97;;;4.07;;
28529;SDS011;15737;49.760;6.632;2023-05-21T07:58:41;7.15;;;5.45;;
28529;SDS011;15737;49.760;6.632;2023-05-21T08:01:09;7.68;;;4.82;;
28529;SDS011;15737;49.760;6.632;2023-05-21T08:03:35;5.95;;;4.97;;
28529;SDS011;15737;49.760;6.632;2023-05-21T08:06:01;5.13;;;4.38;;
28529;SDS011;15737;49.760;6.632;2023-05-21T08:08:27;6.63;;;4.60;;
28529;SDS011;15737;49.760;6.632;2023-05-21T08:10:52;6.25;;;4.75;;
28529;SDS011;15737;49.760;6.632;2023-05-21T08:13:18;6.57;;;5.00;;
28529;SDS011;15737;49.760;6.632;2023-05-21T08:15:43;5.20;;;4.40;;
28529;SDS011;15737;49.760;6.632;2023-05-21T08:18:09;6.28;;;5.00;;
28529;SDS011;15737;49.760;6.632;2023-05-21T08:20:35;5.03;;;4.53;;
28529;SDS011;15737;49.760;6.632;2023-05-21T08:23:01;5.72;;;4.70;;
28529;SDS011;15737;49.760;6.632;2023-05-21T08:25:27;8.85;;;4.90;;
28529;SDS011;15737;49.760;6.632;2023-05-21T08:27:52;7.47;;;5.32;;
28529;SDS011;15737;49.760;6.632;2023-05-21T08:30:18;6.32;;;4.72;;
28529;SDS011;15737;49.760;6.632;2023-05-21T08:32:44;6.22;;;4.93;;
28529;SDS011;15737;49.760;6.632;2023-05-21T08:35:10;6.78;;;4.80;;
28529;SDS011;15737;49.760;6.632;2023-05-21T08:37:35;5.50;;;4.93;;
28529;SDS011;15737;49.760;6.632;2023-05-21T08:40:01;5.90;;;4.72;;
28529;SDS011;15737;49.760;6.632;2023-05-21T08:45:04;6.53;;;5.25;;
28529;SDS011;15737;49.760;6.632;2023-05-21T08:47:31;9.85;;;5.55;;
28529;SDS011;15737;49.760;6.632;2023-05-21T08:52:30;7.05;;;5.13;;
28529;SDS011;15737;49.760;6.632;2023-05-21T08:54:56;6.85;;;4.78;;
28529;SDS011;15737;49.760;6.632;2023-05-21T08:57:22;5.15;;;4.57;;
28529;SDS011;15737;49.760;6.632;2023-05-21T08:59:49;6.65;;;4.63;;
28529;SDS011;15737;49.760;6.632;2023-05-21T09:02:15;10.75;;;5.30;;
28529;SDS011;15737;49.760;6.632;2023-05-21T09:04:42;6.25;;;5.18;;
28529;SDS011;15737;49.760;6.632;2023-05-21T09:07:13;5.05;;;4.53;;
28529;SDS011;15737;49.760;6.632;2023-05-21T09:12:24;6.50;;;5.88;;
28529;SDS011;15737;49.760;6.632;2023-05-21T09:14:51;5.75;;;4.97;;
28529;SDS011;15737;49.760;6.632;2023-05-21T09:17:17;7.32;;;5.47;;
28529;SDS011;15737;49.760;6.632;2023-05-21T09:22:42;6.13;;;4.88;;
28529;SDS011;15737;49.760;6.632;2023-05-21T09:25:11;4.97;;;4.50;;
28529;SDS011;15737;49.760;6.632;2023-05-21T09:27:40;6.30;;;5.60;;
28529;SDS011;15737;49.760;6.632;2023-05-21T09:30:10;6.53;;;5.13;;
28529;SDS011;15737;49.760;6.632;2023-05-21T09:32:38;6.53;;;5.45;;
28529;SDS011;15737;49.760;6.632;2023-05-21T09:35:05;5.45;;;4.32;;
28529;SDS011;15737;49.760;6.632;2023-05-21T09:37:35;5.07;;;4.60;;
28529;SDS011;15737;49.760;6.632;2023-05-21T09:40:12;5.20;;;4.63;;
28529;SDS011;15737;49.760;6.632;2023-05-21T09:42:40;5.57;;;4.70;;
28529;SDS011;15737;49.760;6.632;2023-05-21T09:45:10;8.45;;;5.40;;
28529;SDS011;15737;49.760;6.632;2023-05-21T09:47:42;6.28;;;4.57;;
28529;SDS011;15737;49.760;6.632;2023-05-21T09:50:09;6.05;;;4.28;;
28529;SDS011;15737;49.760;6.632;2023-05-21T09:52:36;5.05;;;4.55;;
28529;SDS011;15737;49.760;6.632;2023-05-21T09:55:03;6.03;;;4.72;;
28529;SDS011;15737;49.760;6.632;2023-05-21T09:57:30;4.78;;;3.95;;
28529;SDS011;15737;49.760;6.632;2023-05-21T09:59:55;5.20;;;4.70;;
28529;SDS011;15737;49.760;6.632;2023-05-21T10:02:21;6.70;;;4.60;;
28529;SDS011;15737;49.760;6.632;2023-05-21T10:04:50;4.78;;;4.25;;
28529;SDS011;15737;49.760;6.632;2023-05-21T10:07:18;4.72;;;4.32;;
28529;SDS011;15737;49.760;6.632;2023-05-21T10:09:54;5.15;;;4.65;;
28529;SDS011;15737;49.760;6.632;2023-05-21T10:12:22;6.80;;;6.10;;
28529;SDS011;15737;49.760;6.632;2023-05-21T10:14:58;5.22;;;4.68;;
28529;SDS011;15737;49.760;6.632;2023-05-21T10:17:28;7.07;;;4.78;;
28529;SDS011;15737;49.760;6.632;2023-05-21T10:19:55;7.63;;;4.95;;
28529;SDS011;15737;49.760;6.632;2023-05-21T10:22:24;4.38;;;4.00;;
28529;SDS011;15737;49.760;6.632;2023-05-21T10:24:53;5.53;;;4.65;;
28529;SDS011;15737;49.760;6.632;2023-05-21T10:27:19;5.30;;;4.80;;
28529;SDS011;15737;49.760;6.632;2023-05-21T10:29:46;5.50;;;5.00;;
28529;SDS011;15737;49.760;6.632;2023-05-21T10:32:14;5.35;;;4.80;;
28529;SDS011;15737;49.760;6.632;2023-05-21T10:34:43;6.25;;;4.82;;
28529;SDS011;15737;49.760;6.632;2023-05-21T10:37:11;6.22;;;4.93;;
28529;SDS011;15737;49.760;6.632;2023-05-21T10:39:37;5.30;;;4.80;;
28529;SDS011;15737;49.760;6.632;2023-05-21T10:47:42;6.22;;;5.57;;
28529;SDS011;15737;49.760;6.632;2023-05-21T10:50:34;4.90;;;4.50;;
28529;SDS011;15737;49.760;6.632;2023-05-21T11:01:27;5.07;;;4.40;;
28529;SDS011;15737;49.760;6.632;2023-05-21T11:03:57;5.45;;;4.90;;
28529;SDS011;15737;49.760;6.632;2023-05-21T11:06:23;6.88;;;4.97;;
28529;SDS011;15737;49.760;6.632;2023-05-21T11:08:50;6.30;;;4.60;;
28529;SDS011;15737;49.760;6.632;2023-05-21T11:17:14;5.45;;;4.95;;
28529;SDS011;15737;49.760;6.632;2023-05-21T11:19:41;4.70;;;4.30;;
28529;SDS011;15737;49.760;6.632;2023-05-21T11:22:08;5.85;;;5.25;;
28529;SDS011;15737;49.760;6.632;2023-05-21T11:24:44;5.25;;;4.75;;
28529;SDS011;15737;49.760;6.632;2023-05-21T11:27:10;6.88;;;4.55;;
28529;SDS011;15737;49.760;6.632;2023-05-21T11:29:38;5.18;;;4.28;;
28529;SDS011;15737;49.760;6.632;2023-05-21T11:32:05;5.18;;;4.68;;
28529;SDS011;15737;49.760;6.632;2023-05-21T11:34:36;4.15;;;3.75;;
28529;SDS011;15737;49.760;6.632;2023-05-21T11:39:42;4.38;;;3.90;;
28529;SDS011;15737;49.760;6.632;2023-05-21T11:42:08;4.68;;;4.28;;
28529;SDS011;15737;49.760;6.632;2023-05-21T11:47:28;5.45;;;4.90;;
28529;SDS011;15737;49.760;6.632;2023-05-21T11:49:53;4.70;;;4.22;;
28529;SDS011;15737;49.760;6.632;2023-05-21T11:52:19;5.47;;;4.22;;
28529;SDS011;15737;49.760;6.632;2023-05-21T11:54:46;4.72;;;4.22;;
28529;SDS011;15737;49.760;6.632;2023-05-21T11:59:48;4.63;;;4.22;;
28529;SDS011;15737;49.760;6.632;2023-05-21T12:02:19;4.93;;;4.43;;
28529;SDS011;15737;49.760;6.632;2023-05-21T12:04:47;4.43;;;4.03;;
28529;SDS011;15737;49.760;6.632;2023-05-21T12:07:14;3.85;;;3.55;;
28529;SDS011;15737;49.760;6.632;2023-05-21T12:09:47;4.95;;;4.45;;
28529;SDS011;15737;49.760;6.632;2023-05-21T12:12:14;3.83;;;3.53;;
28529;SDS011;15737;49.760;6.632;2023-05-21T12:14:45;4.30;;;3.90;;
28529;SDS011;15737;49.760;6.632;2023-05-21T12:17:12;4.60;;;4.20;;
28529;SDS011;15737;49.760;6.632;2023-05-21T12:19:40;4.60;;;4.20;;
28529;SDS011;15737;49.760;6.632;2023-05-21T12:22:06;4.53;;;4.13;;
28529;SDS011;15737;49.760;6.632;2023-05-21T12:24:33;4.47;;;4.07;;
28529;SDS011;15737;49.760;6.632;2023-05-21T12:26:59;5.07;;;4.65;;
28529;SDS011;15737;49.760;6.632;2023-05-21T12:29:30;4.57;;;4.18;;
28529;SDS011;15737;49.760;6.632;2023-05-21T12:32:02;4.93;;;4.43;;
28529;SDS011;15737;49.760;6.632;2023-05-21T12:34:40;4.65;;;4.25;;
28529;SDS011;15737;49.760;6.632;2023-05-21T12:37:19;5.55;;;4.10;;
28529;SDS011;15737;49.760;6.632;2023-05-21T12:39:49;5.07;;;3.75;;
28529;SDS011;15737;49.760;6.632;2023-05-21T12:42:22;4.10;;;3.70;;
28529;SDS011;15737;49.760;6.632;2023-05-21T12:44:50;4.25;;;3.80;;
28529;SDS011;15737;49.760;6.632;2023-05-21T12:47:16;5.32;;;4.50;;
28529;SDS011;15737;49.760;6.632;2023-05-21T12:49:43;4.47;;;4.05;;
28529;SDS011;15737;49.760;6.632;2023-05-21T12:52:12;4.70;;;4.30;;
28529;SDS011;15737;49.760;6.632;2023-05-21T12:54:39;5.03;;;4.32;;
28529;SDS011;15737;49.760;6.632;2023-05-21T13:02:26;5.68;;;4.65;;
28529;SDS011;15737;49.760;6.632;2023-05-21T13:04:57;4.72;;;4.32;;
28529;SDS011;15737;49.760;6.632;2023-05-21T13:07:27;4.28;;;3.92;;
28529;SDS011;15737;49.760;6.632;2023-05-21T13:09:56;4.80;;;4.35;;
28529;SDS011;15737;49.760;6.632;2023-05-21T13:12:23;4.60;;;4.20;;
28529;SDS011;15737;49.760;6.632;2023-05-21T13:14:50;4.88;;;4.47;;
28529;SDS011;15737;49.760;6.632;2023-05-21T13:17:20;5.13;;;4.63;;
28529;SDS011;15737;49.760;6.632;2023-05-21T13:22:44;4.95;;;4.55;;
28529;SDS011;15737;49.760;6.632;2023-05-21T13:25:15;5.60;;;4.97;;
28529;SDS011;15737;49.760;6.632;2023-05-21T13:27:44;5.53;;;5.03;;
28529;SDS011;15737;49.760;6.632;2023-05-21T13:30:11;5.78;;;4.47;;
28529;SDS011;15737;49.760;6.632;2023-05-21T13:32:37;5.00;;;4.53;;
28529;SDS011;15737;49.760;6.632;2023-05-21T13:35:03;4.43;;;4.03;;
28529;SDS011;15737;49.760;6.632;2023-05-21T13:37:29;4.28;;;3.88;;
28529;SDS011;15737;49.760;6.632;2023-05-21T13:39:55;4.93;;;4.53;;
28529;SDS011;15737;49.760;6.632;2023-05-21T13:42:21;4.43;;;3.97;;
28529;SDS011;15737;49.760;6.632;2023-05-21T13:44:47;5.93;;;4.78;;
28529;SDS011;15737;49.760;6.632;2023-05-21T13:47:13;4.78;;;4.32;;
28529;SDS011;15737;49.760;6.632;2023-05-21T13:49:39;4.97;;;3.95;;
28529;SDS011;15737;49.760;6.632;2023-05-21T13:52:05;4.65;;;4.13;;
28529;SDS011;15737;49.760;6.632;2023-05-21T13:54:31;4.47;;;4.07;;
28529;SDS011;15737;49.760;6.632;2023-05-21T13:56:57;4.68;;;4.28;;
28529;SDS011;15737;49.760;6.632;2023-05-21T13:59:23;4.53;;;4.10;;
28529;SDS011;15737;49.760;6.632;2023-05-21T14:01:48;4.90;;;4.50;;
28529;SDS011;15737;49.760;6.632;2023-05-21T14:04:16;4.40;;;4.00;;
28529;SDS011;15737;49.760;6.632;2023-05-21T14:06:43;4.88;;;4.47;;
28529;SDS011;15737;49.760;6.632;2023-05-21T14:09:09;4.85;;;4.43;;
28529;SDS011;15737;49.760;6.632;2023-05-21T14:11:35;4.90;;;4.40;;
28529;SDS011;15737;49.760;6.632;2023-05-21T14:14:00;4.82;;;4.43;;
28529;SDS011;15737;49.760;6.632;2023-05-21T14:16:26;4.78;;;4.30;;
28529;SDS011;15737;49.760;6.632;2023-05-21T14:18:53;5.25;;;4.75;;
28529;SDS011;15737;49.760;6.632;2023-05-21T14:21:19;5.80;;;5.18;;
28529;SDS011;15737;49.760;6.632;2023-05-21T14:23:45;4.45;;;4.05;;
28529;SDS011;15737;49.760;6.632;2023-05-21T14:26:12;7.07;;;4.30;;
28529;SDS011;15737;49.760;6.632;2023-05-21T14:28:38;4.57;;;4.18;;
28529;SDS011;15737;49.760;6.632;2023-05-21T14:31:03;6.18;;;4.60;;
28529;SDS011;15737;49.760;6.632;2023-05-21T14:33:30;4.38;;;3.97;;
28529;SDS011;15737;49.760;6.632;2023-05-21T14:35:56;4.80;;;4.30;;
28529;SDS011;15737;49.760;6.632;2023-05-21T14:38:21;4.40;;;4.00;;
28529;SDS011;15737;49.760;6.632;2023-05-21T14:40:47;4.47;;;4.07;;
28529;SDS011;15737;49.760;6.632;2023-05-21T14:43:12;5.00;;;4.43;;
28529;SDS011;15737;49.760;6.632;2023-05-21T14:45:38;4.18;;;3.78;;
28529;SDS011;15737;49.760;6.632;2023-05-21T14:48:03;4.70;;;4.30;;
28529;SDS011;15737;49.760;6.632;2023-05-21T14:50:35;5.30;;;4.40;;
28529;SDS011;15737;49.760;6.632;2023-05-21T14:53:05;5.40;;;4.75;;
28529;SDS011;15737;49.760;6.632;2023-05-21T14:55:31;5.15;;;4.32;;
28529;SDS011;15737;49.760;6.632;2023-05-21T14:57:58;4.90;;;4.38;;
28529;SDS011;15737;49.760;6.632;2023-05-21T15:00:24;5.18;;;4.75;;
28529;SDS011;15737;49.760;6.632;2023-05-21T15:02:51;4.53;;;4.13;;
28529;SDS011;15737;49.760;6.632;2023-05-21T15:05:17;5.38;;;4.82;;
28529;SDS011;15737;49.760;6.632;2023-05-21T15:07:43;5.10;;;4.60;;
28529;SDS011;15737;49.760;6.632;2023-05-21T15:10:09;5.18;;;4.68;;
28529;SDS011;15737;49.760;6.632;2023-05-21T15:12:35;5.55;;;4.18;;
28529;SDS011;15737;49.760;6.632;2023-05-21T15:15:02;4.55;;;4.15;;
28529;SDS011;15737;49.760;6.632;2023-05-21T15:17:27;4.20;;;3.80;;
28529;SDS011;15737;49.760;6.632;2023-05-21T15:19:53;4.38;;;3.97;;
28529;SDS011;15737;49.760;6.632;2023-05-21T15:22:19;4.82;;;4.38;;
28529;SDS011;15737;49.760;6.632;2023-05-21T15:24:44;4.75;;;4.07;;
28529;SDS011;15737;49.760;6.632;2023-05-21T15:27:10;5.85;;;4.65;;
28529;SDS011;15737;49.760;6.632;2023-05-21T15:29:36;4.30;;;3.92;;
28529;SDS011;15737;49.760;6.632;2023-05-21T15:32:02;5.15;;;4.03;;
28529;SDS011;15737;49.760;6.632;2023-05-21T15:34:32;4.25;;;3.88;;
28529;SDS011;15737;49.760;6.632;2023-05-21T15:36:58;5.07;;;4.15;;
28529;SDS011;15737;49.760;6.632;2023-05-21T15:39:23;4.35;;;3.95;;
28529;SDS011;15737;49.760;6.632;2023-05-21T15:41:50;4.70;;;4.25;;